Time;durP1;ratioP1;P1;durP2;ratioP2;P2;SDS_P1;SDS_P2;PMS_P1;PMS_P2;Temp;Humidity;BMP_temperature;BMP_pressure;BME280_temperature;BME280_humidity;BME280_pressure;Samples;Min_cycle;Max_cycle;Signal;HPM_P1;HPM_P2
2024/01/30 00:01:24;;;;;;;0.60;0.60;;;5.10;99.90;;;;;;5091636;28;20503;-69
2024/01/30 00:03:50;;;;;;;0.45;0.30;;;5.10;99.90;;;;;;5116890;27;20047;-69
2024/01/30 00:06:20;;;;;;;0.20;0.20;;;5.10;99.90;;;;;;5110982;27;20044;-69
2024/01/30 00:08:48;;;;;;;1.65;0.30;;;5.10;99.90;;;;;;5090666;28;20046;-69
2024/01/30 00:11:14;;;;;;;1.30;0.32;;;5.10;99.90;;;;;;5111339;27;20036;-69
2024/01/30 00:13:40;;;;;;;0.20;0.20;;;5.10;99.90;;;;;;5095185;27;20604;-69
2024/01/30 00:16:05;;;;;;;0.10;0.10;;;5.00;99.90;;;;;;5104740;27;20490;-69
2024/01/30 00:18:31;;;;;;;0.15;0.15;;;5.00;99.90;;;;;;5088477;27;20505;-69
2024/01/30 00:20:56;;;;;;;0.22;0.22;;;5.00;99.90;;;;;;5079048;27;20051;-69
2024/01/30 00:23:22;;;;;;;0.10;0.10;;;5.00;99.90;;;;;;5079823;28;20051;-69
2024/01/30 00:25:48;;;;;;;0.20;0.20;;;5.00;99.90;;;;;;5091669;27;20035;-69
2024/01/30 00:28:13;;;;;;;0.35;0.35;;;4.90;99.90;;;;;;5088841;27;20046;-69
2024/01/30 00:30:39;;;;;;;0.30;0.30;;;4.90;99.90;;;;;;5096717;27;20139;-68
2024/01/30 00:33:04;;;;;;;1.00;0.10;;;4.90;99.90;;;;;;5088141;28;20064;-68
2024/01/30 00:35:30;;;;;;;0.22;0.22;;;4.90;99.90;;;;;;5116030;27;20032;-68
2024/01/30 00:37:55;;;;;;;0.63;0.50;;;4.90;99.90;;;;;;5099830;27;20487;-68
2024/01/30 00:40:21;;;;;;;0.63;0.63;;;4.80;99.90;;;;;;5100239;28;20142;-68
2024/01/30 00:42:46;;;;;;;0.40;0.13;;;4.80;99.90;;;;;;5087930;27;20075;-69
2024/01/30 00:45:14;;;;;;;0.10;0.10;;;4.80;99.90;;;;;;5089408;27;20035;-68
2024/01/30 00:47:39;;;;;;;0.30;0.30;;;4.80;99.90;;;;;;5106007;27;20412;-68
2024/01/30 00:50:05;;;;;;;1.55;0.20;;;4.80;99.90;;;;;;5099204;27;20092;-68
2024/01/30 00:52:32;;;;;;;0.30;0.30;;;4.80;99.90;;;;;;5096618;27;20035;-68
2024/01/30 00:54:58;;;;;;;0.10;0.10;;;4.70;99.90;;;;;;5098469;27;20048;-68
2024/01/30 00:57:24;;;;;;;0.43;0.43;;;4.70;99.90;;;;;;5091156;28;20043;-69
2024/01/30 00:59:49;;;;;;;0.45;0.32;;;4.60;99.90;;;;;;5101130;27;20442;-68
2024/01/30 01:02:17;;;;;;;1.40;0.47;;;4.60;99.90;;;;;;5077842;28;20036;-69
2024/01/30 01:04:42;;;;;;;0.30;0.30;;;4.60;99.90;;;;;;5102360;27;20080;-68
2024/01/30 01:07:08;;;;;;;0.10;0.10;;;4.60;99.90;;;;;;5085157;28;20571;-69
2024/01/30 01:09:34;;;;;;;0.38;0.20;;;4.60;99.90;;;;;;5094470;27;20039;-69
2024/01/30 01:11:59;;;;;;;0.40;0.40;;;4.50;99.90;;;;;;5088773;28;20090;-68
2024/01/30 01:14:25;;;;;;;0.32;0.32;;;4.50;99.90;;;;;;5084529;28;20101;-69
2024/01/30 01:16:50;;;;;;;0.20;0.20;;;4.50;99.90;;;;;;5085831;27;20128;-68
2024/01/30 01:19:16;;;;;;;0.25;0.25;;;4.50;99.90;;;;;;5091034;27;20378;-68
2024/01/30 01:21:42;;;;;;;0.90;0.50;;;4.40;99.90;;;;;;5110195;28;20043;-68
2024/01/30 01:24:07;;;;;;;0.52;0.52;;;4.40;99.90;;;;;;5088432;28;20067;-68
2024/01/30 01:26:33;;;;;;;0.30;0.30;;;4.40;99.90;;;;;;5095954;28;20031;-68
2024/01/30 01:28:59;;;;;;;2.00;0.55;;;4.40;99.90;;;;;;5093624;27;20131;-69
2024/01/30 01:31:24;;;;;;;1.25;0.75;;;4.40;99.90;;;;;;5104541;27;20560;-69
2024/01/30 01:33:50;;;;;;;0.30;0.30;;;4.40;99.90;;;;;;5088612;27;20502;-69
2024/01/30 01:36:16;;;;;;;0.50;0.50;;;4.50;99.90;;;;;;5125395;27;20059;-69
2024/01/30 01:38:41;;;;;;;0.13;0.13;;;4.40;99.90;;;;;;5094223;28;20048;-69
2024/01/30 01:41:07;;;;;;;0.60;0.60;;;4.40;99.90;;;;;;5119976;27;20039;-69
2024/01/30 01:43:32;;;;;;;0.28;0.28;;;4.40;99.90;;;;;;5096021;27;20042;-69
2024/01/30 01:45:58;;;;;;;0.35;0.35;;;4.40;99.90;;;;;;5116033;27;20028;-69
2024/01/30 01:48:24;;;;;;;0.13;0.13;;;4.40;99.90;;;;;;5087910;28;20390;-69
2024/01/30 01:50:51;;;;;;;1.02;0.30;;;4.40;99.90;;;;;;5089862;28;20058;-68
2024/01/30 01:53:17;;;;;;;0.10;0.10;;;4.40;99.90;;;;;;5083713;27;20048;-68
2024/01/30 01:55:42;;;;;;;0.08;0.08;;;4.40;99.90;;;;;;5091381;28;20490;-68
2024/01/30 01:58:09;;;;;;;0.10;0.10;;;4.40;99.90;;;;;;5090694;27;20140;-68
2024/01/30 02:00:39;;;;;;;0.15;0.15;;;4.40;99.90;;;;;;5109187;27;20490;-68
2024/01/30 02:03:06;;;;;;;0.22;0.22;;;4.40;99.90;;;;;;5086842;27;20502;-69
2024/01/30 02:05:32;;;;;;;0.73;0.73;;;4.40;99.90;;;;;;5122848;27;20035;-69
2024/01/30 02:07:58;;;;;;;0.13;0.13;;;4.40;99.90;;;;;;5092963;28;20105;-69
2024/01/30 02:10:23;;;;;;;0.10;0.10;;;4.40;99.90;;;;;;5096570;28;20039;-69
2024/01/30 02:12:49;;;;;;;0.93;0.50;;;4.40;99.90;;;;;;5090433;27;20162;-69
2024/01/30 02:15:15;;;;;;;0.30;0.30;;;4.40;99.90;;;;;;5115648;27;20035;-69
2024/01/30 02:17:41;;;;;;;0.13;0.13;;;4.40;99.90;;;;;;5094009;28;20097;-69
2024/01/30 02:20:07;;;;;;;0.17;0.17;;;4.40;99.90;;;;;;5090346;28;20075;-69
2024/01/30 02:22:35;;;;;;;0.57;0.52;;;4.40;99.90;;;;;;5111787;27;20479;-68
2024/01/30 02:25:00;;;;;;;0.20;0.20;;;4.40;99.90;;;;;;5093918;27;20027;-68
2024/01/30 02:27:26;;;;;;;0.73;0.73;;;4.40;99.90;;;;;;5100956;27;20039;-68
2024/01/30 02:29:52;;;;;;;0.82;0.80;;;4.40;99.90;;;;;;5107321;27;20047;-68
2024/01/30 02:32:17;;;;;;;0.20;0.20;;;4.50;99.90;;;;;;5083058;27;20394;-69
2024/01/30 02:34:43;;;;;;;0.10;0.10;;;4.50;99.90;;;;;;5092535;27;20052;-68
2024/01/30 02:37:08;;;;;;;0.57;0.57;;;4.50;99.90;;;;;;5098926;28;20085;-69
2024/01/30 02:39:34;;;;;;;0.30;0.30;;;4.50;99.90;;;;;;5106518;28;20277;-68
2024/01/30 02:42:00;;;;;;;0.40;0.40;;;4.50;99.90;;;;;;5087423;28;20040;-68
2024/01/30 02:44:25;;;;;;;0.20;0.20;;;4.50;99.90;;;;;;5090503;28;20044;-69
2024/01/30 02:46:51;;;;;;;0.50;0.50;;;4.50;99.90;;;;;;5095935;28;20383;-68
2024/01/30 02:49:16;;;;;;;0.50;0.50;;;4.50;99.90;;;;;;5086162;28;20474;-68
2024/01/30 02:51:42;;;;;;;0.20;0.20;;;4.50;99.90;;;;;;5098854;28;20185;-69
2024/01/30 02:54:07;;;;;;;1.02;0.80;;;4.50;99.90;;;;;;5084865;28;20075;-68
2024/01/30 02:56:33;;;;;;;0.20;0.20;;;4.50;99.90;;;;;;5106150;28;20073;-69
2024/01/30 02:58:58;;;;;;;1.33;0.85;;;4.60;99.90;;;;;;5096332;28;20031;-69
2024/01/30 03:01:24;;;;;;;0.30;0.30;;;4.50;99.90;;;;;;5091585;28;20076;-69
2024/01/30 03:03:50;;;;;;;0.30;0.30;;;4.60;99.90;;;;;;5108544;28;20035;-69
2024/01/30 03:06:17;;;;;;;0.70;0.65;;;4.60;99.90;;;;;;5095762;28;20040;-68
2024/01/30 03:08:43;;;;;;;1.55;1.20;;;4.60;99.90;;;;;;5098485;28;20039;-68
2024/01/30 03:11:08;;;;;;;0.25;0.22;;;4.60;99.90;;;;;;5092103;28;20108;-68
2024/01/30 03:13:34;;;;;;;1.17;0.65;;;4.60;99.90;;;;;;5087364;28;20054;-68
2024/01/30 03:15:59;;;;;;;0.35;0.20;;;4.60;99.90;;;;;;5107010;28;20047;-68
2024/01/30 03:18:25;;;;;;;0.63;0.63;;;4.70;99.90;;;;;;5106621;28;20055;-68
2024/01/30 03:20:50;;;;;;;0.20;0.20;;;4.70;99.90;;;;;;5092486;28;20047;-68
2024/01/30 03:23:16;;;;;;;0.63;0.50;;;4.80;99.90;;;;;;5089169;28;20493;-68
2024/01/30 03:25:41;;;;;;;3.08;0.40;;;4.80;99.90;;;;;;5120120;27;20483;-68
2024/01/30 03:28:07;;;;;;;0.15;0.15;;;4.80;99.90;;;;;;5099069;28;20036;-68
2024/01/30 03:30:34;;;;;;;0.25;0.25;;;4.80;99.90;;;;;;5091112;28;20065;-68
2024/01/30 03:32:59;;;;;;;0.43;0.40;;;4.90;99.90;;;;;;5091837;28;20081;-68
2024/01/30 03:35:25;;;;;;;0.50;0.50;;;4.90;99.90;;;;;;5115469;27;20031;-68
2024/01/30 03:37:50;;;;;;;2.70;1.08;;;5.00;99.90;;;;;;5107727;27;20070;-67
2024/01/30 03:40:16;;;;;;;0.55;0.45;;;5.00;99.90;;;;;;5111486;27;20039;-67
2024/01/30 03:42:42;;;;;;;1.02;0.47;;;5.10;99.90;;;;;;5111175;27;20398;-68
2024/01/30 03:45:08;;;;;;;0.95;0.50;;;5.20;99.90;;;;;;5125389;27;20046;-68
2024/01/30 03:47:33;;;;;;;0.20;0.20;;;5.20;99.90;;;;;;5093631;27;20110;-67
2024/01/30 03:49:59;;;;;;;1.20;0.60;;;5.30;99.90;;;;;;5089248;28;20032;-68
2024/01/30 03:52:24;;;;;;;0.30;0.30;;;5.40;99.90;;;;;;5092792;27;20509;-67
2024/01/30 03:54:50;;;;;;;0.65;0.30;;;5.40;99.90;;;;;;5091065;28;20043;-67
2024/01/30 03:57:15;;;;;;;3.30;0.70;;;5.40;99.90;;;;;;5092003;27;20043;-68
2024/01/30 03:59:44;;;;;;;2.92;1.05;;;5.50;99.90;;;;;;5109977;27;20055;-68
2024/01/30 04:02:11;;;;;;;0.38;0.38;;;5.50;99.90;;;;;;5088692;27;20390;-67
2024/01/30 04:04:37;;;;;;;0.20;0.20;;;5.50;99.90;;;;;;5091535;27;20398;-68
2024/01/30 04:07:02;;;;;;;3.00;0.52;;;5.50;99.90;;;;;;5107268;27;20028;-68
2024/01/30 04:09:28;;;;;;;0.57;0.57;;;5.60;99.90;;;;;;5112369;28;20207;-68
2024/01/30 04:11:54;;;;;;;1.75;1.10;;;5.60;99.90;;;;;;5108081;27;20114;-68
2024/01/30 04:14:19;;;;;;;0.30;0.20;;;5.60;99.90;;;;;;5093179;27;20054;-67
2024/01/30 04:16:45;;;;;;;0.22;0.20;;;5.60;99.90;;;;;;5098860;27;20040;-68
2024/01/30 04:19:10;;;;;;;0.15;0.15;;;5.60;99.90;;;;;;5115291;27;20089;-68
2024/01/30 04:21:36;;;;;;;0.20;0.20;;;5.70;99.90;;;;;;5092489;27;20431;-68
2024/01/30 04:24:02;;;;;;;0.52;0.52;;;5.60;99.90;;;;;;5111415;27;20024;-67
2024/01/30 04:26:27;;;;;;;0.65;0.65;;;5.60;99.90;;;;;;5110318;27;20539;-68
2024/01/30 04:28:53;;;;;;;0.47;0.47;;;5.70;99.90;;;;;;5096260;27;20044;-68
2024/01/30 04:31:18;;;;;;;0.17;0.17;;;5.70;99.90;;;;;;5104257;27;20036;-69
2024/01/30 04:33:44;;;;;;;1.42;0.80;;;5.60;99.90;;;;;;5092846;28;20097;-68
2024/01/30 04:36:11;;;;;;;0.77;0.65;;;5.70;99.90;;;;;;5110257;27;20044;-68
2024/01/30 04:38:38;;;;;;;0.30;0.30;;;5.70;99.90;;;;;;5107615;27;20069;-68
2024/01/30 04:41:04;;;;;;;0.95;0.43;;;5.70;99.90;;;;;;5110835;27;20039;-69
2024/01/30 04:43:30;;;;;;;0.20;0.20;;;5.70;99.90;;;;;;5107620;27;20475;-69
2024/01/30 04:45:55;;;;;;;0.45;0.45;;;5.70;99.90;;;;;;5109707;27;20081;-68
2024/01/30 04:48:21;;;;;;;0.40;0.40;;;5.70;99.90;;;;;;5093149;27;20042;-68
2024/01/30 04:50:46;;;;;;;0.22;0.22;;;5.80;99.90;;;;;;5098681;28;20500;-68
2024/01/30 04:53:12;;;;;;;0.10;0.10;;;5.80;99.90;;;;;;5098473;27;20858;-68
2024/01/30 04:55:37;;;;;;;0.08;0.08;;;5.80;99.90;;;;;;5093227;27;21858;-68
2024/01/30 04:58:03;;;;;;;0.15;0.15;;;5.80;99.90;;;;;;5096221;27;20039;-68
2024/01/30 05:00:29;;;;;;;0.88;0.63;;;5.80;99.90;;;;;;5071201;28;20385;-68
2024/01/30 05:02:57;;;;;;;0.28;0.28;;;5.80;99.90;;;;;;5112003;27;20038;-68
2024/01/30 05:05:23;;;;;;;0.52;0.38;;;5.90;99.90;;;;;;5101368;27;20498;-68
2024/01/30 05:07:49;;;;;;;0.55;0.40;;;5.90;99.90;;;;;;5096004;27;20089;-68
2024/01/30 05:10:14;;;;;;;0.43;0.40;;;6.00;99.90;;;;;;5091590;27;20066;-67
2024/01/30 05:12:40;;;;;;;0.47;0.47;;;6.00;99.90;;;;;;5113678;27;20047;-68
2024/01/30 05:15:06;;;;;;;3.40;0.40;;;6.00;99.90;;;;;;5098040;27;20121;-69
2024/01/30 05:17:33;;;;;;;0.10;0.10;;;6.00;99.90;;;;;;5082289;28;20032;-68
2024/01/30 05:19:58;;;;;;;0.15;0.15;;;5.90;99.90;;;;;;5089241;28;20127;-68
2024/01/30 05:22:24;;;;;;;0.47;0.20;;;6.00;99.90;;;;;;5117878;27;20553;-68
2024/01/30 05:24:49;;;;;;;0.40;0.40;;;5.90;99.90;;;;;;5087905;27;20084;-68
2024/01/30 05:27:15;;;;;;;0.20;0.20;;;5.90;99.90;;;;;;5070322;28;20039;-68
2024/01/30 05:29:41;;;;;;;0.28;0.25;;;5.90;99.90;;;;;;5104621;27;20027;-68
2024/01/30 05:32:06;;;;;;;0.90;0.30;;;6.00;99.90;;;;;;5097516;27;20036;-68
2024/01/30 05:34:32;;;;;;;0.10;0.10;;;6.00;99.90;;;;;;5084502;28;20044;-68
2024/01/30 05:36:58;;;;;;;0.60;0.60;;;6.00;99.90;;;;;;5095997;27;20397;-68
2024/01/30 05:39:23;;;;;;;0.10;0.10;;;6.00;99.90;;;;;;5098806;27;20122;-68
2024/01/30 05:41:49;;;;;;;0.10;0.10;;;6.00;99.90;;;;;;5096662;27;20055;-68
2024/01/30 05:44:15;;;;;;;0.10;0.10;;;6.00;99.90;;;;;;5097853;27;20499;-69
2024/01/30 05:46:40;;;;;;;0.10;0.10;;;6.00;99.90;;;;;;5113284;27;20122;-69
2024/01/30 05:49:06;;;;;;;0.52;0.40;;;6.10;99.90;;;;;;5105405;27;20360;-69
2024/01/30 05:51:31;;;;;;;0.60;0.60;;;6.00;99.90;;;;;;5104857;27;20041;-68
2024/01/30 05:53:57;;;;;;;0.00;0.00;;;6.10;99.90;;;;;;5089268;27;20138;-69
2024/01/30 05:56:22;;;;;;;0.00;0.00;;;6.00;99.90;;;;;;5088204;28;20047;-69
2024/01/30 05:58:50;;;;;;;0.30;0.30;;;6.00;99.90;;;;;;5074826;27;20031;-68
2024/01/30 06:01:15;;;;;;;0.20;0.20;;;6.10;99.90;;;;;;5104821;27;20096;-68
2024/01/30 06:03:43;;;;;;;0.93;0.47;;;6.10;99.90;;;;;;5096929;27;20028;-69
2024/01/30 06:06:09;;;;;;;0.10;0.10;;;6.10;99.90;;;;;;5080031;27;20096;-69
2024/01/30 06:08:34;;;;;;;0.47;0.45;;;6.10;99.90;;;;;;5101352;28;20031;-68
2024/01/30 06:11:00;;;;;;;2.25;0.82;;;6.10;99.90;;;;;;5091273;28;20036;-69
2024/01/30 06:13:26;;;;;;;0.68;0.47;;;6.10;99.90;;;;;;5086657;28;20039;-68
2024/01/30 06:15:52;;;;;;;0.88;0.88;;;6.10;99.90;;;;;;5102275;27;20493;-68
2024/01/30 06:18:18;;;;;;;1.65;0.57;;;6.20;99.90;;;;;;5081478;27;20050;-68
2024/01/30 06:20:43;;;;;;;0.90;0.90;;;6.20;99.90;;;;;;5088349;27;20031;-68
2024/01/30 06:23:09;;;;;;;1.45;0.65;;;6.30;99.90;;;;;;5082435;27;20089;-68
2024/01/30 06:25:35;;;;;;;0.40;0.25;;;6.30;99.90;;;;;;5088085;28;20119;-68
2024/01/30 06:28:00;;;;;;;1.58;0.75;;;6.30;99.90;;;;;;5106673;27;20420;-68
2024/01/30 06:30:26;;;;;;;0.40;0.40;;;6.40;99.90;;;;;;5108405;27;20479;-68
2024/01/30 06:32:51;;;;;;;0.35;0.35;;;6.40;99.90;;;;;;5111376;27;20490;-68
2024/01/30 06:35:17;;;;;;;0.65;0.55;;;6.40;99.90;;;;;;5088687;28;20482;-68
2024/01/30 06:37:43;;;;;;;0.35;0.10;;;6.50;99.90;;;;;;5087610;28;20092;-68
2024/01/30 06:40:09;;;;;;;0.08;0.08;;;6.60;99.90;;;;;;5099383;27;20482;-68
2024/01/30 06:42:34;;;;;;;0.47;0.47;;;6.50;99.90;;;;;;5087574;28;20044;-68
2024/01/30 06:45:00;;;;;;;0.77;0.35;;;6.60;99.90;;;;;;5104425;28;20476;-68
2024/01/30 06:47:26;;;;;;;0.57;0.32;;;6.60;99.90;;;;;;5093063;28;20501;-68
2024/01/30 06:49:52;;;;;;;0.55;0.55;;;6.60;99.90;;;;;;5094585;27;20118;-68
2024/01/30 06:52:17;;;;;;;0.45;0.40;;;6.70;99.90;;;;;;5095576;28;20489;-68
2024/01/30 06:54:43;;;;;;;0.70;0.40;;;6.60;99.90;;;;;;5089940;28;20107;-68
2024/01/30 06:57:11;;;;;;;0.20;0.20;;;6.70;99.90;;;;;;5091828;28;20039;-68
2024/01/30 06:59:43;;;;;;;2.20;1.20;;;6.70;99.90;;;;;;5089740;28;20066;-68
2024/01/30 07:02:09;;;;;;;0.25;0.20;;;6.70;99.90;;;;;;5081252;28;20081;-68
2024/01/30 07:04:34;;;;;;;0.75;0.73;;;6.80;99.90;;;;;;5106079;28;20086;-69
2024/01/30 07:07:00;;;;;;;0.40;0.40;;;6.80;99.90;;;;;;5107641;28;20032;-68
2024/01/30 07:09:25;;;;;;;2.08;1.05;;;6.80;99.90;;;;;;5087308;28;20039;-68
2024/01/30 07:11:52;;;;;;;2.20;1.10;;;6.90;99.90;;;;;;5087716;28;20492;-68
2024/01/30 07:14:18;;;;;;;0.43;0.43;;;6.90;99.90;;;;;;5071105;28;20100;-68
2024/01/30 07:16:43;;;;;;;0.47;0.47;;;6.90;99.90;;;;;;5084205;28;20043;-68
2024/01/30 07:19:09;;;;;;;1.00;0.60;;;6.90;99.90;;;;;;5110303;28;20061;-68
2024/01/30 07:21:34;;;;;;;0.30;0.30;;;7.00;99.90;;;;;;5091692;28;20051;-68
2024/01/30 07:24:00;;;;;;;1.30;1.00;;;6.90;99.90;;;;;;5111735;28;20550;-68
2024/01/30 07:26:26;;;;;;;0.68;0.52;;;7.00;99.90;;;;;;5089947;28;20509;-68
2024/01/30 07:28:51;;;;;;;0.70;0.50;;;7.00;99.90;;;;;;5085285;28;20389;-68
2024/01/30 07:31:17;;;;;;;0.17;0.17;;;7.00;99.90;;;;;;5109068;28;20125;-68
2024/01/30 07:33:42;;;;;;;0.38;0.30;;;7.00;99.90;;;;;;5097019;28;20440;-68
2024/01/30 07:36:08;;;;;;;0.10;0.10;;;7.00;99.90;;;;;;5113808;28;21145;-69
2024/01/30 07:38:34;;;;;;;0.47;0.17;;;7.00;99.90;;;;;;5092246;28;20078;-68
2024/01/30 07:41:00;;;;;;;0.50;0.30;;;7.00;99.90;;;;;;5097684;28;20039;-68
2024/01/30 07:43:25;;;;;;;4.68;0.52;;;7.10;99.90;;;;;;5097610;28;20043;-68
2024/01/30 07:45:51;;;;;;;0.32;0.32;;;7.10;99.90;;;;;;5087143;28;20036;-68
2024/01/30 07:48:17;;;;;;;0.70;0.68;;;7.10;99.90;;;;;;5087250;28;20051;-68
2024/01/30 07:50:42;;;;;;;0.85;0.60;;;7.10;99.90;;;;;;5087304;28;20089;-68
2024/01/30 07:53:08;;;;;;;0.30;0.30;;;7.20;99.90;;;;;;5094598;28;20047;-68
2024/01/30 07:55:33;;;;;;;0.85;0.52;;;7.20;99.90;;;;;;5091434;28;20051;-68
2024/01/30 07:58:00;;;;;;;0.25;0.25;;;7.20;99.90;;;;;;5092679;28;20055;-68
2024/01/30 08:00:25;;;;;;;1.95;0.43;;;7.30;99.90;;;;;;5106804;28;20070;-67
2024/01/30 08:02:54;;;;;;;0.98;0.90;;;7.30;99.90;;;;;;5101137;28;20395;-68
2024/01/30 08:05:22;;;;;;;0.50;0.50;;;7.30;99.90;;;;;;5090154;28;20042;-68
2024/01/30 08:07:48;;;;;;;1.60;0.77;;;7.40;99.90;;;;;;5085516;28;20504;-68
2024/01/30 08:10:14;;;;;;;0.40;0.40;;;7.40;99.90;;;;;;5094997;28;20040;-68
2024/01/30 08:12:39;;;;;;;0.63;0.60;;;7.40;99.90;;;;;;5103541;27;20070;-69
2024/01/30 08:15:05;;;;;;;0.75;0.75;;;7.40;99.90;;;;;;5093865;27;20489;-68
2024/01/30 08:17:31;;;;;;;0.98;0.73;;;7.50;99.90;;;;;;5096672;27;20517;-68
2024/01/30 08:19:56;;;;;;;0.30;0.30;;;7.50;99.90;;;;;;5095695;27;20119;-69
2024/01/30 08:22:22;;;;;;;0.65;0.63;;;7.60;99.90;;;;;;5101042;27;20108;-68
2024/01/30 08:24:47;;;;;;;0.75;0.75;;;7.70;99.90;;;;;;5108236;27;20466;-68
2024/01/30 08:27:13;;;;;;;0.40;0.40;;;7.70;99.90;;;;;;5098062;27;20126;-68
2024/01/30 08:29:39;;;;;;;0.60;0.60;;;7.70;99.90;;;;;;5106964;27;20040;-69
2024/01/30 08:32:05;;;;;;;1.67;0.55;;;7.70;99.90;;;;;;5091045;28;20040;-68
2024/01/30 08:34:31;;;;;;;1.25;0.55;;;7.80;99.90;;;;;;5107122;27;20073;-68
2024/01/30 08:36:57;;;;;;;0.93;0.88;;;7.90;99.90;;;;;;5103961;27;20564;-68
2024/01/30 08:39:22;;;;;;;2.03;1.88;;;8.00;99.90;;;;;;5089827;28;20040;-68
2024/01/30 08:41:48;;;;;;;0.60;0.60;;;8.00;99.90;;;;;;5112437;27;20496;-68
2024/01/30 08:44:14;;;;;;;1.02;1.02;;;8.10;99.90;;;;;;5088101;28;20390;-68
2024/01/30 08:46:39;;;;;;;1.75;0.98;;;8.10;99.90;;;;;;5089122;28;20161;-71
2024/01/30 08:49:05;;;;;;;1.48;0.93;;;8.10;99.90;;;;;;5102724;27;20043;-71
2024/01/30 08:51:30;;;;;;;0.95;0.80;;;8.10;99.90;;;;;;5089626;27;20393;-72
2024/01/30 08:53:56;;;;;;;1.75;1.20;;;8.20;99.90;;;;;;5092169;27;20040;-71
2024/01/30 08:56:22;;;;;;;4.70;1.75;;;8.20;99.90;;;;;;5097851;27;20071;-71
2024/01/30 08:58:48;;;;;;;0.77;0.63;;;8.30;99.90;;;;;;5096762;27;20035;-73
2024/01/30 09:01:14;;;;;;;1.23;0.75;;;8.40;99.90;;;;;;5111272;27;20144;-70
2024/01/30 09:03:40;;;;;;;1.50;0.98;;;8.50;99.90;;;;;;5090634;28;20059;-72
2024/01/30 09:06:10;;;;;;;0.85;0.85;;;8.60;99.90;;;;;;5117447;27;20035;-74
2024/01/30 09:08:36;;;;;;;1.05;0.98;;;8.60;99.90;;;;;;5092799;28;20035;-70
2024/01/30 09:11:08;;;;;;;0.70;0.60;;;8.70;99.90;;;;;;5095405;28;20379;-74
2024/01/30 09:13:33;;;;;;;2.55;1.17;;;8.70;99.90;;;;;;5069013;28;20032;-71
2024/01/30 09:15:59;;;;;;;1.75;1.48;;;8.80;99.90;;;;;;5082139;28;20039;-73
2024/01/30 09:18:24;;;;;;;2.00;1.23;;;8.90;99.90;;;;;;5108961;28;20031;-73
2024/01/30 09:20:50;;;;;;;1.20;0.90;;;8.90;99.90;;;;;;5110811;27;20039;-77
2024/01/30 09:23:17;;;;;;;0.77;0.77;;;9.00;99.90;;;;;;5091499;27;20046;-81
2024/01/30 09:25:42;;;;;;;1.75;1.27;;;9.00;99.90;;;;;;5082965;28;20450;-75
2024/01/30 09:28:08;;;;;;;1.00;0.85;;;9.00;99.90;;;;;;5079645;27;20063;-73
2024/01/30 09:30:34;;;;;;;4.97;0.85;;;9.10;99.90;;;;;;5094544;27;20478;-72
2024/01/30 09:32:59;;;;;;;0.63;0.63;;;9.10;99.90;;;;;;5111931;27;20035;-72
2024/01/30 09:35:25;;;;;;;3.10;1.35;;;9.20;99.90;;;;;;5087430;28;20081;-74
2024/01/30 09:37:52;;;;;;;0.90;0.88;;;9.20;99.90;;;;;;5090919;28;20089;-73
2024/01/30 09:40:18;;;;;;;1.17;1.10;;;9.20;99.90;;;;;;5093342;28;20044;-72
2024/01/30 09:42:48;;;;;;;0.40;0.28;;;9.30;99.90;;;;;;5097563;27;20031;-72
2024/01/30 09:45:14;;;;;;;0.63;0.63;;;9.30;99.90;;;;;;5085170;28;20072;-72
2024/01/30 09:47:44;;;;;;;0.60;0.47;;;9.30;99.90;;;;;;5079111;28;20097;-72
2024/01/30 09:50:11;;;;;;;0.55;0.50;;;9.40;99.90;;;;;;5082859;28;20039;-71
2024/01/30 09:52:37;;;;;;;1.20;1.20;;;9.30;99.90;;;;;;5088748;28;20394;-76
2024/01/30 09:55:04;;;;;;;1.23;0.32;;;9.40;99.90;;;;;;5095203;27;20092;-74
2024/01/30 09:57:29;;;;;;;3.20;2.20;;;9.50;99.90;;;;;;5100110;28;20031;-72
2024/01/30 09:59:55;;;;;;;0.60;0.60;;;9.50;99.90;;;;;;5087647;28;20401;-74
2024/01/30 10:02:21;;;;;;;0.70;0.70;;;9.50;99.90;;;;;;5088553;28;20050;-74
2024/01/30 10:04:48;;;;;;;1.98;1.10;;;9.60;99.90;;;;;;5089014;28;20144;-72
2024/01/30 10:07:14;;;;;;;2.67;1.20;;;9.60;99.90;;;;;;5099235;28;20043;-74
2024/01/30 10:09:40;;;;;;;0.60;0.30;;;9.70;99.90;;;;;;5090110;28;20567;-74
2024/01/30 10:12:06;;;;;;;1.20;0.65;;;9.80;99.90;;;;;;5076808;28;20087;-72
2024/01/30 10:14:32;;;;;;;0.47;0.47;;;9.80;99.90;;;;;;5085373;28;20489;-72
2024/01/30 10:16:58;;;;;;;0.50;0.50;;;9.90;99.90;;;;;;5106546;27;20343;-76
2024/01/30 10:19:23;;;;;;;1.40;0.70;;;10.00;99.90;;;;;;5085473;28;20492;-73
2024/01/30 10:21:49;;;;;;;1.25;1.00;;;10.10;99.90;;;;;;5083387;27;20053;-72
2024/01/30 10:24:15;;;;;;;1.13;1.00;;;10.10;99.90;;;;;;5086269;28;20402;-72
2024/01/30 10:26:43;;;;;;;0.68;0.52;;;10.10;99.90;;;;;;5093793;28;20054;-71
2024/01/30 10:29:08;;;;;;;2.20;1.42;;;10.20;99.90;;;;;;5099937;28;20036;-72
2024/01/30 10:31:34;;;;;;;3.97;0.50;;;10.20;99.90;;;;;;5076310;28;20386;-74
2024/01/30 10:33:59;;;;;;;4.25;2.63;;;10.10;99.90;;;;;;5089145;28;20043;-72
2024/01/30 10:36:29;;;;;;;3.60;1.55;;;10.10;99.90;;;;;;5114840;27;20042;-72
2024/01/30 10:38:59;;;;;;;0.88;0.82;;;10.10;99.90;;;;;;5090068;28;20043;-77
2024/01/30 10:41:26;;;;;;;1.67;1.23;;;10.10;99.90;;;;;;5095727;27;20504;-74
2024/01/30 10:44:10;;;;;;;1.02;0.50;;;10.10;99.90;;;;;;5086768;28;20052;-77
2024/01/30 10:46:38;;;;;;;2.42;0.55;;;10.10;99.90;;;;;;5081238;28;20036;-80
2024/01/30 10:49:06;;;;;;;1.27;1.17;;;10.20;99.90;;;;;;5062952;28;20043;-70
2024/01/30 10:51:34;;;;;;;0.75;0.75;;;10.20;99.90;;;;;;5087676;28;20324;-76
2024/01/30 10:54:00;;;;;;;0.75;0.75;;;10.30;99.90;;;;;;5079820;28;20048;-77
2024/01/30 10:56:27;;;;;;;0.80;0.63;;;10.40;99.90;;;;;;5093808;28;20043;-74
2024/01/30 10:58:53;;;;;;;0.43;0.40;;;10.50;99.90;;;;;;5104018;28;20047;-81
2024/01/30 11:01:22;;;;;;;0.88;0.50;;;10.60;99.90;;;;;;5089491;28;20039;-69
2024/01/30 11:03:50;;;;;;;3.60;2.67;;;10.60;99.90;;;;;;5087181;28;20151;-77
2024/01/30 11:06:18;;;;;;;0.90;0.55;;;10.60;99.90;;;;;;5088405;28;20047;-71
2024/01/30 11:08:59;;;;;;;4.43;1.70;;;10.60;99.90;;;;;;5108026;28;20043;-78
2024/01/30 11:11:25;;;;;;;2.50;1.70;;;10.70;99.90;;;;;;5100772;28;20040;-77
2024/01/30 11:13:51;;;;;;;1.67;0.80;;;10.70;99.90;;;;;;5088961;28;20047;-77
2024/01/30 11:16:17;;;;;;;1.65;0.80;;;10.60;99.90;;;;;;5058661;28;20040;-78
2024/01/30 11:18:42;;;;;;;4.78;2.05;;;10.70;99.90;;;;;;5088612;28;20055;-75
2024/01/30 11:21:08;;;;;;;2.65;0.90;;;10.70;99.90;;;;;;5079351;28;20509;-75
2024/01/30 11:23:34;;;;;;;2.03;1.30;;;10.70;99.90;;;;;;5101571;28;20485;-73
2024/01/30 11:26:00;;;;;;;3.35;1.58;;;10.60;99.90;;;;;;5084808;28;20506;-76
2024/01/30 11:28:33;;;;;;;1.73;1.00;;;10.70;99.90;;;;;;5105360;28;20040;-79
2024/01/30 11:31:06;;;;;;;1.10;0.65;;;10.70;99.90;;;;;;5078136;28;20067;-77
2024/01/30 11:33:33;;;;;;;1.05;0.75;;;10.70;99.90;;;;;;5091242;28;20036;-80
2024/01/30 11:36:00;;;;;;;1.45;1.00;;;10.70;99.90;;;;;;5090992;28;20040;-74
2024/01/30 11:38:29;;;;;;;1.95;1.35;;;10.90;99.90;;;;;;5106533;28;20037;-72
2024/01/30 11:40:56;;;;;;;1.13;0.77;;;10.90;99.90;;;;;;5109958;28;20428;-70
2024/01/30 11:43:22;;;;;;;1.27;1.10;;;10.90;99.90;;;;;;5116106;27;20040;-71
2024/01/30 11:45:48;;;;;;;0.32;0.32;;;11.10;99.90;;;;;;5112624;27;20393;-68
2024/01/30 11:48:13;;;;;;;0.68;0.40;;;11.20;99.90;;;;;;5098621;28;20386;-79
2024/01/30 11:50:41;;;;;;;3.05;1.85;;;11.30;99.90;;;;;;5086890;28;20051;-69
2024/01/30 11:53:07;;;;;;;1.20;1.05;;;11.20;99.90;;;;;;5096440;28;20158;-71
2024/01/30 11:55:33;;;;;;;5.90;1.30;;;11.20;99.90;;;;;;5092642;28;20158;-72
2024/01/30 11:57:59;;;;;;;2.60;1.05;;;11.20;99.90;;;;;;5106629;27;20031;-76
2024/01/30 12:00:25;;;;;;;1.27;1.20;;;11.20;99.90;;;;;;5102553;27;20387;-78
2024/01/30 12:02:58;;;;;;;1.05;0.98;;;11.20;99.90;;;;;;5099976;27;20036;-74
2024/01/30 12:05:24;;;;;;;0.77;0.77;;;11.10;99.90;;;;;;5094418;27;20080;-74
2024/01/30 12:07:51;;;;;;;0.77;0.77;;;10.80;99.90;;;;;;5111004;27;20053;-75
2024/01/30 12:10:20;;;;;;;0.75;0.75;;;10.70;99.90;;;;;;5079704;28;20531;-79
2024/01/30 12:12:47;;;;;;;2.28;1.67;;;10.50;99.90;;;;;;5114886;28;20044;-74
2024/01/30 12:15:14;;;;;;;0.52;0.52;;;10.50;99.90;;;;;;5065724;28;20043;-76
2024/01/30 12:17:40;;;;;;;0.55;0.55;;;10.40;99.90;;;;;;5090320;28;20047;-76
2024/01/30 12:20:13;;;;;;;0.28;0.20;;;10.40;99.90;;;;;;5082971;28;20447;-77
2024/01/30 12:22:48;;;;;;;0.75;0.45;;;10.50;99.90;;;;;;5104651;27;20057;-75
2024/01/30 12:25:16;;;;;;;0.45;0.45;;;10.50;99.90;;;;;;5086709;28;20036;-78
2024/01/30 12:27:52;;;;;;;0.77;0.40;;;10.40;99.90;;;;;;5107332;28;20043;-69
2024/01/30 12:30:20;;;;;;;0.50;0.50;;;10.40;99.90;;;;;;5088103;27;20139;-78
2024/01/30 12:32:47;;;;;;;0.20;0.20;;;10.30;99.90;;;;;;5112223;27;20047;-74
2024/01/30 12:35:18;;;;;;;0.43;0.43;;;10.20;99.90;;;;;;5096642;27;20442;-74
2024/01/30 12:37:45;;;;;;;0.85;0.50;;;10.20;99.90;;;;;;5119476;27;20087;-76
2024/01/30 12:40:15;;;;;;;0.68;0.45;;;10.20;99.90;;;;;;5101506;27;20553;-77
2024/01/30 12:42:48;;;;;;;0.60;0.22;;;10.20;99.90;;;;;;5102264;27;20439;-72
2024/01/30 12:45:14;;;;;;;1.15;1.05;;;10.10;99.90;;;;;;5083504;28;20134;-72
2024/01/30 12:47:41;;;;;;;0.50;0.50;;;10.10;99.90;;;;;;5060583;27;20032;-75
2024/01/30 12:50:07;;;;;;;0.47;0.47;;;10.10;99.90;;;;;;5087542;27;20047;-76